Time;durP1;ratioP1;P1;durP2;ratioP2;P2;SDS_P1;SDS_P2;PMS_P1;PMS_P2;Temp;Humidity;BMP_temperature;BMP_pressure;BME280_temperature;BME280_humidity;BME280_pressure;Samples;Min_cycle;Max_cycle;Signal;HPM_P1;HPM_P2
2022/10/03 00:00:15;;;;;;;;;;;15.70;66.10;;;;;;5025797;28;83210;-44
2022/10/03 00:02:59;;;;;;;;;;;15.70;66.60;;;;;;5025830;28;81929;-43
2022/10/03 00:05:38;;;;;;;;;;;15.70;66.10;;;;;;5026041;28;82483;-43
2022/10/03 00:08:15;;;;;;;;;;;15.70;66.10;;;;;;5023946;28;86246;-43
2022/10/03 00:10:52;;;;;;;;;;;15.60;66.20;;;;;;5025597;28;82082;-43
2022/10/03 00:13:18;;;;;;;;;;;15.60;66.10;;;;;;5025884;28;82369;-44
2022/10/03 00:15:48;;;;;;;;;;;15.60;66.10;;;;;;5026253;28;81514;-43
2022/10/03 00:18:17;;;;;;;;;;;15.60;66.10;;;;;;5028671;28;81833;-44
2022/10/03 00:21:00;;;;;;;;;;;15.60;66.00;;;;;;5025347;28;82333;-44
2022/10/03 00:23:48;;;;;;;;;;;15.60;66.10;;;;;;5024875;28;82861;-43
2022/10/03 00:26:29;;;;;;;;;;;15.60;66.10;;;;;;5025718;28;82808;-43
2022/10/03 00:29:01;;;;;;;;;;;15.60;66.10;;;;;;5028895;28;82359;-43
2022/10/03 00:31:45;;;;;;;;;;;15.60;66.00;;;;;;5029125;28;82058;-44
2022/10/03 00:34:19;;;;;;;;;;;15.50;66.10;;;;;;5029023;28;82527;-43
2022/10/03 00:36:56;;;;;;;;;;;15.50;66.10;;;;;;5029077;28;82771;-43
2022/10/03 00:39:22;;;;;;;;;;;15.50;66.10;;;;;;5031774;28;81934;-43
2022/10/03 00:41:54;;;;;;;;;;;15.50;66.10;;;;;;5029503;28;82360;-43
2022/10/03 00:44:23;;;;;;;;;;;15.50;66.10;;;;;;5029227;28;81975;-43
2022/10/03 00:46:58;;;;;;;;;;;15.50;66.10;;;;;;5029110;28;82651;-43
2022/10/03 00:49:24;;;;;;;;;;;15.40;66.20;;;;;;5027422;28;84035;-43
2022/10/03 00:52:13;;;;;;;;;;;15.40;66.10;;;;;;5028707;28;82064;-44
2022/10/03 00:54:38;;;;;;;;;;;15.40;66.10;;;;;;5028929;28;82466;-43
2022/10/03 00:57:13;;;;;;;;;;;15.40;65.90;;;;;;5028693;28;83126;-44
2022/10/03 00:59:47;;;;;;;;;;;15.40;66.00;;;;;;5028650;28;82009;-43
2022/10/03 01:02:32;;;;;;;;;;;15.40;65.90;;;;;;5031245;28;82433;-44
2022/10/03 01:05:11;;;;;;;;;;;15.40;66.10;;;;;;5027898;28;81948;-44
2022/10/03 01:07:56;;;;;;;;;;;15.40;66.10;;;;;;5029152;28;82545;-43
2022/10/03 01:10:27;;;;;;;;;;;15.30;66.20;;;;;;5028193;28;82911;-43
2022/10/03 01:12:55;;;;;;;;;;;15.30;66.20;;;;;;5028321;28;82033;-43
2022/10/03 01:15:28;;;;;;;;;;;15.30;66.20;;;;;;5027899;28;83083;-43
2022/10/03 01:17:56;;;;;;;;;;;15.30;66.20;;;;;;5028150;28;82842;-43
2022/10/03 01:20:34;;;;;;;;;;;15.30;66.30;;;;;;5028464;28;81958;-43
2022/10/03 01:23:20;;;;;;;;;;;15.20;66.20;;;;;;5028516;28;82363;-43
2022/10/03 01:25:57;;;;;;;;;;;15.20;66.20;;;;;;5029440;28;82261;-43
2022/10/03 01:31:21;;;;;;;;;;;15.20;66.30;;;;;;5028222;28;82253;-43
2022/10/03 01:33:52;;;;;;;;;;;15.20;66.30;;;;;;5028570;28;81310;-43
2022/10/03 01:36:27;;;;;;;;;;;15.20;66.20;;;;;;5028231;28;81853;-43
2022/10/03 01:39:01;;;;;;;;;;;15.20;66.30;;;;;;5027459;28;82920;-43
2022/10/03 01:41:45;;;;;;;;;;;15.20;66.20;;;;;;5027323;28;82779;-43
2022/10/03 01:44:12;;;;;;;;;;;15.10;66.20;;;;;;5027777;28;83633;-43
2022/10/03 01:46:40;;;;;;;;;;;15.20;66.10;;;;;;5027924;28;83085;-43
2022/10/03 01:49:06;;;;;;;;;;;15.10;66.10;;;;;;5030050;28;82632;-43
2022/10/03 01:52:01;;;;;;;;;;;15.10;66.20;;;;;;5027816;28;83400;-43
2022/10/03 01:54:39;;;;;;;;;;;15.10;66.20;;;;;;5026091;28;81979;-43
2022/10/03 01:57:23;;;;;;;;;;;15.10;66.20;;;;;;5028056;28;81893;-43
2022/10/03 02:00:04;;;;;;;;;;;15.10;66.20;;;;;;5027906;28;81244;-43
2022/10/03 02:02:33;;;;;;;;;;;15.10;66.10;;;;;;5027899;28;81827;-43
2022/10/03 02:05:06;;;;;;;;;;;15.00;66.10;;;;;;5027539;28;82406;-44
2022/10/03 02:07:49;;;;;;;;;;;15.00;66.00;;;;;;5026668;28;83787;-43
2022/10/03 02:10:53;;;;;;;;;;;15.00;66.80;;;;;;5027229;28;82087;-43
2022/10/03 02:13:45;;;;;;;;;;;15.00;66.10;;;;;;5027112;28;82778;-43
2022/10/03 02:16:37;;;;;;;;;;;14.90;66.20;;;;;;5023998;28;81974;-43
2022/10/03 02:19:23;;;;;;;;;;;15.00;66.20;;;;;;5024998;28;82574;-44
2022/10/03 02:21:50;;;;;;;;;;;14.90;66.10;;;;;;5026838;28;83211;-43
2022/10/03 02:24:16;;;;;;;;;;;14.90;66.20;;;;;;5027297;28;82039;-43
2022/10/03 02:26:45;;;;;;;;;;;14.90;66.20;;;;;;5027792;28;82313;-43
2022/10/03 02:29:28;;;;;;;;;;;14.90;66.10;;;;;;5027422;28;83011;-43
2022/10/03 02:32:12;;;;;;;;;;;14.90;66.30;;;;;;5027267;28;82154;-43
2022/10/03 02:34:56;;;;;;;;;;;14.90;66.20;;;;;;5026618;28;82772;-43
2022/10/03 02:37:31;;;;;;;;;;;14.90;66.20;;;;;;5029834;28;83026;-42
2022/10/03 02:40:16;;;;;;;;;;;14.90;66.20;;;;;;5027193;28;82456;-44
2022/10/03 02:43:00;;;;;;;;;;;14.80;66.20;;;;;;5026972;28;82922;-43
2022/10/03 02:45:37;;;;;;;;;;;14.80;66.20;;;;;;5027177;28;81909;-43
2022/10/03 02:48:03;;;;;;;;;;;14.80;66.20;;;;;;5027023;28;82714;-44
2022/10/03 02:50:47;;;;;;;;;;;14.80;66.20;;;;;;5025256;28;82823;-43
2022/10/03 02:53:24;;;;;;;;;;;14.80;66.20;;;;;;5027162;28;81441;-43
2022/10/03 02:56:09;;;;;;;;;;;14.80;66.20;;;;;;5027055;28;82102;-43
2022/10/03 02:58:49;;;;;;;;;;;14.80;66.00;;;;;;5029495;28;83147;-43
2022/10/03 03:01:33;;;;;;;;;;;14.80;66.00;;;;;;5026199;28;82721;-44
2022/10/03 03:04:07;;;;;;;;;;;14.80;66.00;;;;;;5026532;28;83025;-43
2022/10/03 03:06:33;;;;;;;;;;;14.80;66.10;;;;;;5026830;28;81980;-43
2022/10/03 03:09:17;;;;;;;;;;;14.70;66.10;;;;;;5026673;28;82404;-43
2022/10/03 03:11:53;;;;;;;;;;;14.70;66.20;;;;;;5026136;28;82950;-43
2022/10/03 03:14:21;;;;;;;;;;;14.70;66.00;;;;;;5026653;28;81968;-43
2022/10/03 03:17:00;;;;;;;;;;;14.70;66.00;;;;;;5026410;28;82362;-43
2022/10/03 03:19:40;;;;;;;;;;;14.70;66.60;;;;;;5026935;28;82383;-44
2022/10/03 03:22:26;;;;;;;;;;;14.70;65.80;;;;;;5029307;28;81889;-43
2022/10/03 03:25:01;;;;;;;;;;;14.70;65.90;;;;;;5026139;28;82844;-43
2022/10/03 03:27:32;;;;;;;;;;;14.70;66.10;;;;;;5025750;28;83055;-43
2022/10/03 03:30:07;;;;;;;;;;;14.70;66.00;;;;;;5026404;28;83348;-43
2022/10/03 03:32:38;;;;;;;;;;;14.70;66.00;;;;;;5025976;28;83504;-43
2022/10/03 03:35:13;;;;;;;;;;;14.70;65.90;;;;;;5026078;28;82180;-43
2022/10/03 03:37:42;;;;;;;;;;;14.60;65.80;;;;;;5026324;28;82436;-43
2022/10/03 03:40:28;;;;;;;;;;;14.60;65.90;;;;;;5025944;28;83019;-43
2022/10/03 03:42:53;;;;;;;;;;;14.60;66.00;;;;;;5026275;28;81893;-43
2022/10/03 03:45:19;;;;;;;;;;;14.60;66.00;;;;;;5029181;28;82125;-45
2022/10/03 03:48:11;;;;;;;;;;;14.60;66.10;;;;;;5025901;28;82120;-43
2022/10/03 03:50:47;;;;;;;;;;;14.50;66.10;;;;;;5025922;28;82223;-42
2022/10/03 03:53:18;;;;;;;;;;;14.60;66.00;;;;;;5025288;28;83921;-43
2022/10/03 03:55:49;;;;;;;;;;;14.60;66.00;;;;;;5026072;28;82058;-43
2022/10/03 03:58:21;;;;;;;;;;;14.50;66.10;;;;;;5026133;28;81867;-43
2022/10/03 04:00:55;;;;;;;;;;;14.50;66.00;;;;;;5025741;28;83197;-43
2022/10/03 04:03:30;;;;;;;;;;;14.60;66.00;;;;;;5025583;28;82058;-43
2022/10/03 04:05:56;;;;;;;;;;;14.60;65.90;;;;;;5025944;28;82237;-43
2022/10/03 04:08:27;;;;;;;;;;;14.60;65.80;;;;;;5028647;28;82903;-43
2022/10/03 04:11:11;;;;;;;;;;;14.50;65.70;;;;;;5025957;28;82378;-43
2022/10/03 04:13:39;;;;;;;;;;;14.50;65.90;;;;;;5025842;28;83083;-43
2022/10/03 04:18:56;;;;;;;;;;;14.50;65.90;;;;;;5025854;28;82176;-43
2022/10/03 04:19:28;;;;;;;;;;;14.50;65.90;;;;;;5024780;28;82983;-43
2022/10/03 04:22:02;;;;;;;;;;;14.50;65.80;;;;;;5025404;28;81835;-42
2022/10/03 04:24:28;;;;;;;;;;;14.50;65.90;;;;;;5025878;28;81831;-43
2022/10/03 04:26:58;;;;;;;;;;;14.50;65.80;;;;;;5025589;28;81768;-42
2022/10/03 04:29:27;;;;;;;;;;;14.40;65.80;;;;;;5024998;28;82946;-43
2022/10/03 04:31:56;;;;;;;;;;;14.40;65.80;;;;;;5028384;28;82184;-43
2022/10/03 04:34:31;;;;;;;;;;;14.50;65.80;;;;;;5025501;28;83075;-43
2022/10/03 04:37:15;;;;;;;;;;;14.40;65.90;;;;;;5026221;28;81164;-43
2022/10/03 04:39:52;;;;;;;;;;;14.40;65.90;;;;;;5025438;28;82068;-43
2022/10/03 04:42:47;;;;;;;;;;;14.40;65.90;;;;;;5025470;28;82869;-42
2022/10/03 04:45:18;;;;;;;;;;;14.40;65.90;;;;;;5022969;28;82918;-43
2022/10/03 04:47:50;;;;;;;;;;;14.40;65.90;;;;;;5025739;28;83462;-43
2022/10/03 04:50:31;;;;;;;;;;;14.40;66.00;;;;;;5024548;28;83051;-43
2022/10/03 04:53:09;;;;;;;;;;;14.30;66.00;;;;;;5025235;28;82027;-43
2022/10/03 04:55:48;;;;;;;;;;;14.40;65.90;;;;;;5027874;28;82564;-43
2022/10/03 04:58:19;;;;;;;;;;;14.40;65.90;;;;;;5025160;28;81992;-43
2022/10/03 05:00:45;;;;;;;;;;;14.30;66.00;;;;;;5025233;28;82388;-43
2022/10/03 05:03:29;;;;;;;;;;;14.30;66.10;;;;;;5025570;28;82435;-43
2022/10/03 05:05:59;;;;;;;;;;;14.30;66.00;;;;;;5025164;28;82102;-43
2022/10/03 05:08:44;;;;;;;;;;;14.30;66.10;;;;;;5025118;28;82490;-43
2022/10/03 05:11:17;;;;;;;;;;;14.20;66.10;;;;;;5023524;28;84079;-43
2022/10/03 05:13:49;;;;;;;;;;;14.20;66.10;;;;;;5025564;28;82370;-43
2022/10/03 05:16:17;;;;;;;;;;;14.30;66.10;;;;;;5031073;28;82486;-43
2022/10/03 05:18:52;;;;;;;;;;;14.20;66.00;;;;;;5028384;28;81921;-43
2022/10/03 05:21:27;;;;;;;;;;;14.20;66.10;;;;;;5028156;28;81936;-43
2022/10/03 05:24:03;;;;;;;;;;;14.20;66.10;;;;;;5027970;28;83113;-42
2022/10/03 05:26:42;;;;;;;;;;;14.20;66.10;;;;;;5028506;28;81980;-43
2022/10/03 05:29:23;;;;;;;;;;;14.20;66.10;;;;;;5028865;28;81922;-41
2022/10/03 05:31:52;;;;;;;;;;;14.20;66.10;;;;;;5028108;28;82985;-43
2022/10/03 05:34:30;;;;;;;;;;;14.20;66.00;;;;;;5027968;28;82043;-43
2022/10/03 05:36:58;;;;;;;;;;;14.20;66.20;;;;;;5027736;28;82990;-43
2022/10/03 05:39:37;;;;;;;;;;;14.10;66.20;;;;;;5030702;28;82244;-43
2022/10/03 05:42:11;;;;;;;;;;;14.10;66.20;;;;;;5028364;28;82408;-43
2022/10/03 05:44:37;;;;;;;;;;;14.10;66.20;;;;;;5028167;28;83221;-43
2022/10/03 05:47:43;;;;;;;;;;;14.10;66.30;;;;;;5028195;28;82041;-43
2022/10/03 05:49:54;;;;;;;;;;;14.10;66.20;;;;;;5027216;28;82963;-42
2022/10/03 05:52:30;;;;;;;;;;;14.10;66.20;;;;;;5027868;28;83178;-42
2022/10/03 05:55:11;;;;;;;;;;;14.10;66.30;;;;;;5028300;28;81327;-43
2022/10/03 05:57:48;;;;;;;;;;;14.10;66.30;;;;;;5028134;28;81972;-43
2022/10/03 06:00:21;;;;;;;;;;;14.10;66.40;;;;;;5027997;28;83096;-43
2022/10/03 06:02:58;;;;;;;;;;;14.10;66.40;;;;;;5029652;28;83051;-43
2022/10/03 06:05:31;;;;;;;;;;;14.10;66.50;;;;;;5027673;28;83208;-43
2022/10/03 06:08:02;;;;;;;;;;;14.10;66.50;;;;;;5027666;28;81711;-43
2022/10/03 06:10:38;;;;;;;;;;;14.10;66.40;;;;;;5027751;28;82038;-42
2022/10/03 06:13:23;;;;;;;;;;;14.10;66.50;;;;;;5027357;28;82092;-43
2022/10/03 06:16:03;;;;;;;;;;;14.00;66.40;;;;;;5027710;28;82136;-43
2022/10/03 06:18:44;;;;;;;;;;;14.00;66.50;;;;;;5027720;28;82210;-43
2022/10/03 06:21:24;;;;;;;;;;;14.00;66.50;;;;;;5027928;28;82343;-43
2022/10/03 06:24:00;;;;;;;;;;;14.00;67.10;;;;;;5027324;28;82093;-43
2022/10/03 06:26:37;;;;;;;;;;;14.00;66.50;;;;;;5029692;28;83109;-43
2022/10/03 06:29:12;;;;;;;;;;;14.00;66.50;;;;;;5026613;28;82882;-43
2022/10/03 06:31:40;;;;;;;;;;;14.00;66.50;;;;;;5027516;28;83642;-43
2022/10/03 06:34:08;;;;;;;;;;;14.00;66.50;;;;;;5027063;28;82995;-43
2022/10/03 06:36:34;;;;;;;;;;;14.00;66.60;;;;;;5027245;28;82077;-43
2022/10/03 06:39:18;;;;;;;;;;;14.00;66.70;;;;;;5027043;28;82599;-43
2022/10/03 06:41:50;;;;;;;;;;;14.00;66.60;;;;;;5026989;28;82032;-43
2022/10/03 06:44:31;;;;;;;;;;;14.00;66.60;;;;;;5027069;28;83169;-43
2022/10/03 06:46:56;;;;;;;;;;;14.00;66.60;;;;;;5027495;28;81623;-43
2022/10/03 06:49:48;;;;;;;;;;;13.90;66.70;;;;;;5029228;28;82988;-43
2022/10/03 06:52:14;;;;;;;;;;;13.90;66.80;;;;;;5027182;28;82039;-43
2022/10/03 06:54:51;;;;;;;;;;;13.90;66.90;;;;;;5025954;28;84015;-43
2022/10/03 06:57:25;;;;;;;;;;;13.90;66.80;;;;;;5027046;28;82362;-43
2022/10/03 06:59:53;;;;;;;;;;;13.90;66.70;;;;;;5026896;28;82618;-43
2022/10/03 07:02:37;;;;;;;;;;;13.90;66.80;;;;;;5026653;28;82258;-43
2022/10/03 07:05:23;;;;;;;;;;;13.90;66.90;;;;;;5026918;28;82128;-43
2022/10/03 07:07:48;;;;;;;;;;;13.80;67.00;;;;;;5027003;28;81929;-43
2022/10/03 07:10:17;;;;;;;;;;;13.80;66.90;;;;;;5026487;28;83009;-43
2022/10/03 07:13:01;;;;;;;;;;;13.80;66.90;;;;;;5029608;28;80899;-43
2022/10/03 07:15:42;;;;;;;;;;;13.80;67.00;;;;;;5026413;28;82979;-43
2022/10/03 07:18:16;;;;;;;;;;;13.80;67.00;;;;;;5026612;28;82141;-42
2022/10/03 07:21:00;;;;;;;;;;;13.80;67.10;;;;;;5026124;28;83022;-43
2022/10/03 07:23:32;;;;;;;;;;;13.70;67.20;;;;;;5026342;28;82302;-43
2022/10/03 07:26:10;;;;;;;;;;;13.80;67.20;;;;;;5026403;28;81923;-43
2022/10/03 07:28:50;;;;;;;;;;;13.80;67.20;;;;;;5026378;28;82279;-43
2022/10/03 07:31:34;;;;;;;;;;;13.70;67.20;;;;;;5025991;28;81955;-43
2022/10/03 07:34:14;;;;;;;;;;;13.70;67.20;;;;;;5029477;28;82553;-43
2022/10/03 07:39:48;;;;;;;;;;;13.70;67.30;;;;;;5026705;28;81087;-43
2022/10/03 07:42:39;;;;;;;;;;;13.70;67.30;;;;;;5026382;28;81835;-42
2022/10/03 07:45:23;;;;;;;;;;;13.70;67.40;;;;;;5026122;28;82928;-43
2022/10/03 07:47:52;;;;;;;;;;;13.70;67.40;;;;;;5025526;28;83022;-42
2022/10/03 07:50:43;;;;;;;;;;;13.70;67.50;;;;;;5025431;28;82526;-43
2022/10/03 07:53:27;;;;;;;;;;;13.70;67.50;;;;;;5025831;28;83185;-43
2022/10/03 07:55:53;;;;;;;;;;;13.60;67.50;;;;;;5026082;28;81893;-42
2022/10/03 07:58:45;;;;;;;;;;;13.60;67.60;;;;;;5028545;28;82364;-43
2022/10/03 08:01:29;;;;;;;;;;;13.60;67.50;;;;;;5026089;28;82573;-42
2022/10/03 08:03:55;;;;;;;;;;;13.60;67.60;;;;;;5026055;28;82309;-43
2022/10/03 08:06:30;;;;;;;;;;;13.60;67.60;;;;;;5026325;28;82425;-43
2022/10/03 08:09:03;;;;;;;;;;;13.60;67.50;;;;;;5025727;28;81965;-43
2022/10/03 08:11:47;;;;;;;;;;;13.60;67.60;;;;;;5025516;28;82041;-43
2022/10/03 08:14:12;;;;;;;;;;;13.60;67.60;;;;;;5025076;28;84271;-43
2022/10/03 08:16:38;;;;;;;;;;;13.60;67.70;;;;;;5025725;28;82077;-43
2022/10/03 08:19:23;;;;;;;;;;;13.60;67.70;;;;;;5025844;28;82364;-43
2022/10/03 08:21:54;;;;;;;;;;;13.60;67.70;;;;;;5028423;28;82065;-43
2022/10/03 08:24:28;;;;;;;;;;;13.60;67.70;;;;;;5025544;28;82614;-43
2022/10/03 08:27:12;;;;;;;;;;;13.60;67.70;;;;;;5025591;28;82978;-43
2022/10/03 08:29:38;;;;;;;;;;;13.60;67.90;;;;;;5025771;28;82983;-43
2022/10/03 08:32:22;;;;;;;;;;;13.60;68.00;;;;;;5025801;28;82428;-43
2022/10/03 08:34:47;;;;;;;;;;;13.50;68.10;;;;;;5025476;28;82718;-43
2022/10/03 08:37:19;;;;;;;;;;;13.50;68.00;;;;;;5025373;28;82639;-43
2022/10/03 08:40:03;;;;;;;;;;;13.50;68.00;;;;;;5025151;28;82775;-43
2022/10/03 08:42:51;;;;;;;;;;;13.50;68.00;;;;;;5025116;28;82747;-43
2022/10/03 08:45:23;;;;;;;;;;;13.50;67.90;;;;;;5028332;28;81844;-43
2022/10/03 08:48:07;;;;;;;;;;;13.50;68.00;;;;;;5025623;28;82787;-42
2022/10/03 08:50:52;;;;;;;;;;;13.50;68.10;;;;;;5028042;28;81941;-43
2022/10/03 08:53:37;;;;;;;;;;;13.50;68.20;;;;;;5028917;28;82338;-43
2022/10/03 08:56:26;;;;;;;;;;;13.50;68.10;;;;;;5028670;28;82118;-43
2022/10/03 08:59:07;;;;;;;;;;;13.50;68.10;;;;;;5028152;28;81373;-43
2022/10/03 09:01:35;;;;;;;;;;;13.50;68.10;;;;;;5028880;28;81858;-43
2022/10/03 09:04:15;;;;;;;;;;;13.50;68.10;;;;;;5028428;28;82207;-43
2022/10/03 09:06:59;;;;;;;;;;;13.50;68.20;;;;;;5028090;28;82978;-43
2022/10/03 09:09:43;;;;;;;;;;;13.50;68.30;;;;;;5030934;28;82543;-43
2022/10/03 09:12:18;;;;;;;;;;;13.50;68.20;;;;;;5028451;28;82153;-43
2022/10/03 09:15:10;;;;;;;;;;;13.50;68.20;;;;;;5028447;28;82336;-43
2022/10/03 09:17:48;;;;;;;;;;;13.50;68.30;;;;;;5027619;28;83146;-43
2022/10/03 09:20:34;;;;;;;;;;;13.50;68.40;;;;;;5028450;28;82078;-43
2022/10/03 09:23:18;;;;;;;;;;;13.40;68.30;;;;;;5026030;28;82493;-43
2022/10/03 09:25:43;;;;;;;;;;;13.50;68.30;;;;;;5028608;28;82492;-43
2022/10/03 09:28:19;;;;;;;;;;;13.50;68.20;;;;;;5028315;28;82017;-43
2022/10/03 09:30:47;;;;;;;;;;;13.40;68.20;;;;;;5030664;28;82386;-44
2022/10/03 09:33:30;;;;;;;;;;;13.50;68.30;;;;;;5027481;28;82970;-43
2022/10/03 09:36:13;;;;;;;;;;;13.50;68.30;;;;;;5028167;28;83454;-42
2022/10/03 09:38:57;;;;;;;;;;;13.50;68.30;;;;;;5028163;28;82992;-43
2022/10/03 09:41:29;;;;;;;;;;;13.50;68.40;;;;;;5028050;28;82039;-43
2022/10/03 09:44:13;;;;;;;;;;;13.40;68.40;;;;;;5028077;28;82327;-43
2022/10/03 09:46:39;;;;;;;;;;;13.40;68.30;;;;;;5027943;28;82961;-43
2022/10/03 09:49:23;;;;;;;;;;;13.40;68.30;;;;;;5025712;28;82462;-43
2022/10/03 09:51:50;;;;;;;;;;;13.40;68.40;;;;;;5028386;28;82521;-43
2022/10/03 09:54:28;;;;;;;;;;;13.50;68.40;;;;;;5030260;28;83478;-43
2022/10/03 09:56:56;;;;;;;;;;;13.50;68.40;;;;;;5028112;28;82516;-43
2022/10/03 09:59:32;;;;;;;;;;;13.40;68.40;;;;;;5026884;28;83882;-43
2022/10/03 10:01:57;;;;;;;;;;;13.40;68.40;;;;;;5027605;28;81922;-43
2022/10/03 10:04:52;;;;;;;;;;;13.50;68.30;;;;;;5027763;28;82469;-43
2022/10/03 10:07:36;;;;;;;;;;;13.50;68.50;;;;;;5027654;28;82882;-43
2022/10/03 10:10:29;;;;;;;;;;;13.50;68.40;;;;;;5027685;28;82211;-43
2022/10/03 10:16:16;;;;;;;;;;;13.50;69.10;;;;;;5026753;28;82102;-43
2022/10/03 10:18:46;;;;;;;;;;;13.40;68.70;;;;;;5030568;28;81439;-43
2022/10/03 10:21:19;;;;;;;;;;;13.40;68.60;;;;;;5026975;28;83072;-43
2022/10/03 10:23:55;;;;;;;;;;;13.40;68.60;;;;;;5027223;28;82128;-42
2022/10/03 10:26:40;;;;;;;;;;;13.50;68.60;;;;;;5026822;28;83021;-43
2022/10/03 10:29:07;;;;;;;;;;;13.40;68.70;;;;;;5026965;28;82079;-43
2022/10/03 10:31:51;;;;;;;;;;;13.40;68.70;;;;;;5027209;28;82038;-43
2022/10/03 10:34:26;;;;;;;;;;;13.40;68.70;;;;;;5027468;28;82269;-43
2022/10/03 10:37:06;;;;;;;;;;;13.40;68.70;;;;;;5027140;28;82054;-43
2022/10/03 10:39:51;;;;;;;;;;;13.50;68.90;;;;;;5027029;28;82108;-43
2022/10/03 10:42:36;;;;;;;;;;;13.50;69.10;;;;;;5029711;28;82432;-43
2022/10/03 10:45:04;;;;;;;;;;;13.50;69.10;;;;;;5027564;28;81255;-42
2022/10/03 10:47:48;;;;;;;;;;;13.50;69.00;;;;;;5026939;28;81931;-42
2022/10/03 10:50:32;;;;;;;;;;;13.50;68.90;;;;;;5026141;28;82967;-43
2022/10/03 10:53:16;;;;;;;;;;;13.50;69.10;;;;;;5026296;28;83045;-42
2022/10/03 10:56:02;;;;;;;;;;;13.50;68.90;;;;;;5027208;28;83281;-42
2022/10/03 10:58:30;;;;;;;;;;;13.50;68.90;;;;;;5026714;28;82992;-43
2022/10/03 11:00:59;;;;;;;;;;;13.50;69.00;;;;;;5026811;28;82124;-43
2022/10/03 11:03:55;;;;;;;;;;;13.50;69.00;;;;;;5026884;28;82490;-43
2022/10/03 11:06:21;;;;;;;;;;;13.50;69.20;;;;;;5029529;28;82925;-43
2022/10/03 11:09:04;;;;;;;;;;;13.50;69.20;;;;;;5026344;28;82509;-43
2022/10/03 11:11:34;;;;;;;;;;;13.50;69.00;;;;;;5026043;28;82273;-43
2022/10/03 11:14:08;;;;;;;;;;;13.50;69.20;;;;;;5026771;28;82055;-43
2022/10/03 11:16:39;;;;;;;;;;;13.50;69.10;;;;;;5026743;28;82192;-43
2022/10/03 11:19:25;;;;;;;;;;;13.50;69.00;;;;;;5025752;28;84026;-42
2022/10/03 11:22:09;;;;;;;;;;;13.50;69.20;;;;;;5026344;28;81933;-42
2022/10/03 11:24:44;;;;;;;;;;;13.50;68.90;;;;;;5026587;28;82292;-43
2022/10/03 11:27:28;;;;;;;;;;;13.50;69.20;;;;;;5026368;28;82932;-43
2022/10/03 11:30:08;;;;;;;;;;;13.50;69.20;;;;;;5029261;28;82121;-42
2022/10/03 11:32:54;;;;;;;;;;;13.50;68.90;;;;;;5026199;28;82944;-43
2022/10/03 11:35:38;;;;;;;;;;;13.50;69.40;;;;;;5026017;28;83244;-43
2022/10/03 11:38:14;;;;;;;;;;;13.50;69.30;;;;;;5026777;28;82507;-43
2022/10/03 11:40:59;;;;;;;;;;;13.50;69.10;;;;;;5025930;28;82914;-43
2022/10/03 11:43:33;;;;;;;;;;;13.50;69.20;;;;;;5026259;28;81901;-43
2022/10/03 11:45:58;;;;;;;;;;;13.50;69.10;;;;;;5024308;28;83165;-42
2022/10/03 11:48:41;;;;;;;;;;;13.50;69.30;;;;;;5025867;28;82967;-43
2022/10/03 11:51:09;;;;;;;;;;;13.50;69.10;;;;;;5028977;28;82022;-42
2022/10/03 11:53:41;;;;;;;;;;;13.50;69.30;;;;;;5025753;28;82860;-43
2022/10/03 11:56:26;;;;;;;;;;;13.50;69.40;;;;;;5025852;28;81985;-43
2022/10/03 11:59:11;;;;;;;;;;;13.50;69.20;;;;;;5026050;28;82423;-43
2022/10/03 12:01:55;;;;;;;;;;;13.50;69.60;;;;;;5026019;28;82977;-42
2022/10/03 12:04:36;;;;;;;;;;;13.50;69.20;;;;;;5026352;28;81389;-43
2022/10/03 12:10:12;;;;;;;;;;;13.50;69.20;;;;;;5026075;28;82285;-42
2022/10/03 12:12:52;;;;;;;;;;;13.50;69.40;;;;;;5024941;28;83144;-43
2022/10/03 12:15:20;;;;;;;;;;;13.50;69.80;;;;;;5028705;28;83046;-43
2022/10/03 12:17:54;;;;;;;;;;;13.50;69.40;;;;;;5025638;28;81959;-42
2022/10/03 12:20:23;;;;;;;;;;;13.40;69.40;;;;;;5025911;28;82677;-43
2022/10/03 12:23:07;;;;;;;;;;;13.40;69.40;;;;;;5025830;28;82148;-42
2022/10/03 12:25:39;;;;;;;;;;;13.50;69.70;;;;;;5029775;28;82388;-42
2022/10/03 12:28:11;;;;;;;;;;;13.50;69.60;;;;;;5029325;28;81793;-42
2022/10/03 12:30:46;;;;;;;;;;;13.50;69.50;;;;;;5029891;28;82126;-43
2022/10/03 12:33:27;;;;;;;;;;;13.40;69.60;;;;;;5029120;28;81959;-42
2022/10/03 12:36:08;;;;;;;;;;;13.50;69.80;;;;;;5029040;28;83666;-43
2022/10/03 12:38:46;;;;;;;;;;;13.50;69.70;;;;;;5030951;28;83865;-43
2022/10/03 12:41:20;;;;;;;;;;;13.50;69.80;;;;;;5028998;28;83257;-42
2022/10/03 12:43:52;;;;;;;;;;;13.50;69.80;;;;;;5028862;28;83182;-43
2022/10/03 12:46:26;;;;;;;;;;;13.50;69.50;;;;;;5028975;28;81950;-42
2022/10/03 12:49:01;;;;;;;;;;;13.50;69.60;;;;;;5028491;28;82375;-42
2022/10/03 12:51:27;;;;;;;;;;;13.50;69.40;;;;;;5028686;28;82492;-42
2022/10/03 12:53:59;;;;;;;;;;;13.50;69.70;;;;;;5028977;28;82110;-43
2022/10/03 12:56:33;;;;;;;;;;;13.50;69.80;;;;;;5029561;28;82445;-43
2022/10/03 12:59:01;;;;;;;;;;;13.50;69.30;;;;;;5028613;28;83000;-43
2022/10/03 13:01:30;;;;;;;;;;;13.50;69.20;;;;;;5031369;28;81997;-43
2022/10/03 13:03:55;;;;;;;;;;;13.60;69.50;;;;;;5027879;28;84034;-42
2022/10/03 13:06:24;;;;;;;;;;;13.50;69.40;;;;;;5028704;28;82093;-43
2022/10/03 13:09:08;;;;;;;;;;;13.50;69.20;;;;;;5028556;28;82722;-42
2022/10/03 13:11:34;;;;;;;;;;;13.50;69.30;;;;;;5028440;28;82913;-43
2022/10/03 13:14:19;;;;;;;;;;;13.50;69.40;;;;;;5026771;28;82447;-42
2022/10/03 13:16:53;;;;;;;;;;;13.50;69.20;;;;;;5028675;28;82222;-42
2022/10/03 13:19:20;;;;;;;;;;;13.50;69.40;;;;;;5028200;28;83211;-42
2022/10/03 13:21:54;;;;;;;;;;;13.50;69.40;;;;;;5028918;28;81372;-42
2022/10/03 13:24:22;;;;;;;;;;;13.50;69.50;;;;;;5031012;28;81911;-42
2022/10/03 13:26:51;;;;;;;;;;;13.50;69.50;;;;;;5028197;28;82027;-42
2022/10/03 13:29:16;;;;;;;;;;;13.50;69.30;;;;;;5027699;28;82954;-42
2022/10/03 13:31:54;;;;;;;;;;;13.50;69.40;;;;;;5028126;28;82110;-43
2022/10/03 13:34:22;;;;;;;;;;;13.50;69.60;;;;;;5026083;28;81987;-42
2022/10/03 13:36:54;;;;;;;;;;;13.50;69.50;;;;;;5028104;28;81822;-42
2022/10/03 13:39:20;;;;;;;;;;;13.50;69.50;;;;;;5027716;28;82921;-42
2022/10/03 13:41:59;;;;;;;;;;;13.50;69.60;;;;;;5028207;28;82035;-42
2022/10/03 13:44:34;;;;;;;;;;;13.40;69.70;;;;;;5028051;28;81922;-41
2022/10/03 13:47:09;;;;;;;;;;;13.50;69.60;;;;;;5031165;28;81570;-42
2022/10/03 13:49:40;;;;;;;;;;;13.40;69.70;;;;;;5027605;28;81874;-42
2022/10/03 13:52:41;;;;;;;;;;;13.50;69.30;;;;;;5027823;28;83186;-42
2022/10/03 13:55:13;;;;;;;;;;;13.50;69.80;;;;;;5024910;28;83713;-42
2022/10/03 13:57:44;;;;;;;;;;;13.50;69.60;;;;;;5027230;28;83550;-43
2022/10/03 14:00:12;;;;;;;;;;;13.50;69.70;;;;;;5027385;28;82924;-42
2022/10/03 14:02:49;;;;;;;;;;;13.50;69.50;;;;;;5027761;28;81964;-42
2022/10/03 14:05:26;;;;;;;;;;;13.50;69.90;;;;;;5027826;28;82936;-42
2022/10/03 14:07:54;;;;;;;;;;;13.50;69.60;;;;;;5030185;28;82085;-42
2022/10/03 14:10:39;;;;;;;;;;;13.50;69.70;;;;;;5027652;28;82387;-42
2022/10/03 14:13:22;;;;;;;;;;;13.50;69.50;;;;;;5027858;28;82158;-42
2022/10/03 14:15:50;;;;;;;;;;;13.50;69.50;;;;;;5027711;28;82050;-42
2022/10/03 14:18:16;;;;;;;;;;;13.50;69.40;;;;;;5027523;28;82383;-42
2022/10/03 14:20:41;;;;;;;;;;;13.50;69.50;;;;;;5026801;28;83195;-41
2022/10/03 14:23:17;;;;;;;;;;;13.50;69.80;;;;;;5027373;28;82050;-42
2022/10/03 14:25:43;;;;;;;;;;;13.50;69.50;;;;;;5027578;28;82377;-42
2022/10/03 14:28:15;;;;;;;;;;;13.50;69.70;;;;;;5027213;28;82185;-42
2022/10/03 14:30:43;;;;;;;;;;;13.50;69.40;;;;;;5030298;28;81985;-43
2022/10/03 14:33:28;;;;;;;;;;;13.50;69.90;;;;;;5027120;28;82178;-42
2022/10/03 14:35:54;;;;;;;;;;;13.50;69.60;;;;;;5027024;28;82107;-42
2022/10/03 14:38:22;;;;;;;;;;;13.50;69.60;;;;;;5027567;28;82442;-42
2022/10/03 14:40:57;;;;;;;;;;;13.50;69.90;;;;;;5027099;28;83012;-43
2022/10/03 14:43:58;;;;;;;;;;;13.50;69.60;;;;;;5027146;28;82007;-42
2022/10/03 14:46:26;;;;;;;;;;;13.50;69.60;;;;;;5023848;28;83041;-43
2022/10/03 14:48:57;;;;;;;;;;;13.50;69.70;;;;;;5025759;28;83196;-42
2022/10/03 14:51:40;;;;;;;;;;;13.50;69.50;;;;;;5027111;28;81800;-42
2022/10/03 14:54:41;;;;;;;;;;;13.50;69.40;;;;;;5029691;28;81875;-42
2022/10/03 14:57:21;;;;;;;;;;;13.50;69.70;;;;;;5024793;28;82989;-43
2022/10/03 14:59:51;;;;;;;;;;;13.60;69.60;;;;;;5026892;28;82990;-42
2022/10/03 15:02:36;;;;;;;;;;;13.50;69.70;;;;;;5022982;28;88186;-42
2022/10/03 15:05:31;;;;;;;;;;;13.60;69.60;;;;;;5022874;28;86423;-42
2022/10/03 15:07:57;;;;;;;;;;;13.50;69.60;;;;;;5021939;28;87065;-42
2022/10/03 15:10:25;;;;;;;;;;;13.50;69.70;;;;;;5022693;28;88143;-42
2022/10/03 15:12:56;;;;;;;;;;;13.50;69.50;;;;;;5022224;28;88002;-42
2022/10/03 15:15:30;;;;;;;;;;;13.50;69.40;;;;;;5022868;28;88308;-42
2022/10/03 15:18:01;;;;;;;;;;;13.50;69.40;;;;;;5025642;28;87928;-42
2022/10/03 15:20:31;;;;;;;;;;;13.50;69.70;;;;;;5023175;28;87446;-43